createdAt,value
2023-03-06T00:01:03.464Z,33.00
2023-03-06T00:03:29.959Z,30.00
2023-03-06T00:05:57.486Z,27.00
2023-03-06T00:08:26.124Z,23.75
2023-03-06T00:10:52.542Z,30.00
2023-03-06T00:13:21.970Z,30.25
2023-03-06T00:15:51.570Z,32.00
2023-03-06T00:18:18.053Z,30.75
2023-03-06T00:20:44.441Z,31.50
2023-03-06T00:23:11.466Z,34.00
2023-03-06T00:25:38.900Z,30.75
2023-03-06T00:28:06.019Z,31.50
2023-03-06T00:30:32.483Z,27.25
2023-03-06T00:32:58.872Z,28.25
2023-03-06T00:35:25.438Z,24.50
2023-03-06T00:37:51.862Z,25.50
2023-03-06T00:40:19.399Z,27.00
2023-03-06T00:42:46.125Z,25.00
2023-03-06T00:45:12.632Z,21.50
2023-03-06T00:47:39.430Z,27.25
2023-03-06T00:50:06.344Z,25.00
2023-03-06T00:52:33.773Z,15.00
2023-03-06T00:55:00.178Z,20.75
2023-03-06T00:57:26.556Z,18.50
2023-03-06T00:59:52.866Z,24.50
2023-03-06T01:02:19.575Z,24.50
2023-03-06T01:04:54.736Z,24.00
2023-03-06T01:07:24.328Z,27.00
2023-03-06T01:09:50.665Z,20.25
2023-03-06T01:12:17.610Z,25.75
2023-03-06T01:14:44.001Z,23.50
2023-03-06T01:17:13.804Z,24.75
2023-03-06T01:19:40.238Z,18.25
2023-03-06T01:22:06.652Z,14.25
2023-03-06T01:24:33.127Z,14.50
2023-03-06T01:27:02.818Z,20.50
2023-03-06T01:29:29.323Z,19.00
2023-03-06T01:31:55.762Z,16.75
2023-03-06T01:34:22.221Z,21.00
2023-03-06T01:36:48.741Z,12.00
2023-03-06T01:39:15.393Z,27.50
2023-03-06T01:41:41.807Z,18.00
2023-03-06T01:44:10.153Z,22.25
2023-03-06T01:46:44.681Z,21.25
2023-03-06T01:49:14.072Z,23.50
2023-03-06T01:51:52.902Z,16.50
2023-03-06T01:54:22.636Z,22.00
2023-03-06T01:56:52.158Z,24.00
2023-03-06T01:59:18.579Z,19.50
2023-03-06T02:01:45.528Z,26.50
2023-03-06T02:04:12.290Z,22.00
2023-03-06T02:06:44.518Z,21.50
2023-03-06T02:09:12.499Z,24.50
2023-03-06T02:11:44.052Z,24.75
2023-03-06T02:14:14.640Z,23.50
2023-03-06T02:16:41.769Z,20.50
2023-03-06T02:19:12.039Z,25.00
2023-03-06T02:21:38.509Z,16.00
2023-03-06T02:24:23.617Z,21.25
2023-03-06T02:26:51.322Z,24.25
2023-03-06T02:29:28.605Z,15.25
2023-03-06T02:31:55.600Z,21.25
2023-03-06T02:34:22.189Z,9.25
2023-03-06T02:36:51.150Z,19.75
2023-03-06T02:39:20.190Z,19.00
2023-03-06T02:41:46.913Z,20.00
2023-03-06T02:44:13.444Z,20.50
2023-03-06T02:46:39.886Z,18.25
2023-03-06T02:49:06.315Z,21.50
2023-03-06T02:51:32.791Z,16.00
2023-03-06T02:53:59.290Z,22.50
2023-03-06T02:56:25.750Z,18.75
2023-03-06T02:58:54.859Z,18.50
2023-03-06T03:01:21.389Z,11.00
2023-03-06T03:03:47.815Z,16.00
2023-03-06T03:06:14.202Z,19.00
2023-03-06T03:08:40.757Z,19.00
2023-03-06T03:11:09.750Z,22.00
2023-03-06T03:13:38.062Z,21.50
2023-03-06T03:16:06.301Z,12.00
2023-03-06T03:18:32.762Z,19.50
2023-03-06T03:20:59.203Z,21.25
2023-03-06T03:23:26.507Z,20.50
2023-03-06T03:25:53.361Z,22.25
2023-03-06T03:28:20.239Z,18.00
2023-03-06T03:30:46.777Z,20.50
2023-03-06T03:33:13.219Z,18.25
2023-03-06T03:35:39.678Z,19.50
2023-03-06T03:38:06.303Z,19.00
2023-03-06T03:40:32.796Z,21.00
2023-03-06T03:43:01.559Z,24.00
2023-03-06T03:45:27.965Z,27.50
2023-03-06T03:47:54.380Z,28.00
2023-03-06T03:50:21.166Z,30.75
2023-03-06T03:52:47.569Z,29.00
2023-03-06T03:55:14.043Z,25.50
2023-03-06T03:57:43.520Z,24.00
2023-03-06T04:00:12.152Z,21.25
2023-03-06T04:02:41.208Z,26.00
2023-03-06T04:05:07.867Z,21.75
2023-03-06T04:07:34.288Z,30.00
2023-03-06T04:10:00.899Z,30.00
2023-03-06T04:12:29.640Z,25.50
2023-03-06T04:14:58.570Z,23.50
2023-03-06T04:17:26.729Z,18.25
2023-03-06T04:19:53.832Z,22.00
2023-03-06T04:22:20.281Z,21.25
2023-03-06T04:27:58.987Z,20.00
2023-03-06T04:30:32.787Z,21.25
2023-03-06T04:32:59.195Z,21.75
2023-03-06T04:35:36.063Z,18.50
2023-03-06T04:38:02.706Z,19.00
2023-03-06T04:40:30.613Z,15.50
2023-03-06T04:42:58.110Z,21.75
2023-03-06T04:45:25.295Z,15.75
2023-03-06T04:47:52.581Z,21.25
2023-03-06T04:50:21.940Z,18.25
2023-03-06T04:52:51.654Z,18.00
2023-03-06T04:55:30.199Z,21.00
2023-03-06T05:00:55.645Z,25.25
2023-03-06T05:03:23.830Z,21.25
2023-03-06T05:05:53.498Z,20.50
2023-03-06T05:08:19.992Z,18.25
2023-03-06T05:10:57.067Z,18.00
2023-03-06T05:13:23.906Z,26.50
2023-03-06T05:15:50.389Z,24.75
2023-03-06T05:18:28.092Z,21.00
2023-03-06T05:34:05.863Z,22.00
2023-03-06T05:40:45.382Z,19.50
2023-03-06T05:43:25.399Z,27.50
2023-03-06T06:13:02.212Z,25.50
2023-03-06T06:41:31.066Z,23.00
2023-03-06T06:43:51.725Z,32.00
2023-03-06T06:47:17.871Z,30.50
2023-03-06T06:49:18.629Z,34.00
2023-03-06T06:51:51.160Z,32.25
2023-03-06T06:54:20.946Z,29.75
2023-03-06T06:56:49.524Z,33.25
2023-03-06T06:59:20.376Z,33.00
2023-03-06T07:01:48.467Z,33.75
2023-03-06T07:04:16.074Z,39.50
2023-03-06T07:06:43.765Z,29.25
2023-03-06T07:09:13.704Z,32.75
2023-03-06T07:11:42.256Z,37.50
2023-03-06T07:14:10.210Z,37.00
2023-03-06T07:16:37.209Z,28.25
2023-03-06T07:19:03.765Z,29.25
2023-03-06T07:21:31.459Z,24.25
2023-03-06T07:24:03.951Z,24.50
2023-03-06T07:26:34.612Z,30.50
2023-03-06T07:29:06.993Z,24.00
2023-03-06T07:31:41.662Z,28.25
2023-03-06T07:37:27.610Z,24.00
2023-03-06T07:40:18.173Z,25.25
2023-03-06T07:46:41.143Z,25.00
2023-03-06T07:49:09.764Z,27.75
2023-03-06T07:51:43.593Z,28.00
2023-03-06T07:57:06.433Z,28.00
2023-03-06T08:05:16.021Z,25.00
2023-03-06T08:07:43.409Z,26.25
2023-03-06T08:10:25.827Z,29.25
2023-03-06T08:12:59.403Z,31.00
2023-03-06T08:15:34.664Z,29.00
2023-03-06T08:26:37.192Z,32.00
2023-03-06T08:29:12.652Z,31.25
2023-03-06T08:31:44.604Z,36.25
2023-03-06T08:36:59.740Z,32.00
2023-03-06T08:50:14.026Z,30.25
2023-03-06T08:52:42.516Z,30.00
2023-03-06T08:57:57.467Z,30.25
2023-03-06T09:00:36.665Z,29.75
2023-03-06T09:03:06.266Z,30.50
2023-03-06T09:05:38.717Z,29.25
2023-03-06T09:11:16.630Z,26.50
2023-03-06T09:13:49.097Z,4.00
2023-03-06T09:16:15.759Z,27.00
2023-03-06T09:22:14.908Z,27.50
2023-03-06T09:48:59.320Z,26.00
2023-03-06T09:51:40.617Z,28.25
2023-03-06T09:54:17.105Z,27.75
2023-03-06T09:56:47.145Z,30.50
2023-03-06T09:59:18.147Z,30.00
2023-03-06T10:01:56.112Z,27.00
2023-03-06T11:19:22.152Z,9.67
2023-03-06T11:22:00.846Z,26.00
2023-03-06T11:24:32.097Z,31.25
2023-03-06T11:27:01.009Z,11.50
2023-03-06T11:29:38.982Z,10.00
2023-03-06T11:32:09.694Z,5.67
2023-03-06T11:34:42.249Z,19.25
2023-03-06T11:37:15.420Z,2.25
2023-03-06T11:39:44.271Z,10.00
2023-03-06T11:42:32.696Z,8.00
2023-03-06T11:45:18.151Z,22.75
2023-03-06T11:47:48.238Z,9.00
2023-03-06T11:50:17.907Z,9.50
2023-03-06T11:52:44.431Z,9.50
2023-03-06T11:55:15.397Z,9.75
2023-03-06T11:58:05.106Z,10.00
2023-03-06T12:00:35.113Z,8.00
2023-03-06T12:03:04.638Z,7.25
2023-03-06T12:05:39.241Z,9.50
2023-03-06T12:08:24.662Z,8.50
2023-03-06T12:11:12.200Z,9.75
2023-03-06T12:13:41.465Z,9.50
2023-03-06T12:16:46.992Z,10.00
2023-03-06T12:19:21.429Z,3.00
2023-03-06T12:22:04.452Z,8.50
2023-03-06T12:24:37.181Z,6.00
2023-03-06T12:27:03.688Z,10.25
2023-03-06T12:29:33.729Z,14.50
2023-03-06T12:32:10.246Z,9.50
2023-03-06T12:34:55.560Z,7.00
2023-03-06T12:37:29.518Z,11.75
2023-03-06T12:40:14.474Z,6.50
2023-03-06T12:42:42.479Z,9.50
2023-03-06T12:45:15.011Z,9.00
2023-03-06T12:47:44.161Z,6.00
2023-03-06T12:50:24.398Z,8.50
2023-03-06T12:52:51.854Z,6.00
2023-03-06T12:55:23.715Z,7.75
2023-03-06T12:57:51.418Z,7.75
2023-03-06T13:00:34.325Z,6.25
2023-03-06T13:03:33.217Z,8.00
2023-03-06T13:06:23.016Z,9.50
2023-03-06T13:08:51.069Z,10.25
2023-03-06T13:11:30.654Z,11.00
2023-03-06T13:13:57.506Z,10.75
2023-03-06T13:16:27.239Z,10.25
2023-03-06T13:18:56.385Z,12.75
2023-03-06T13:21:41.258Z,11.00
2023-03-06T13:24:34.342Z,8.25
2023-03-06T13:27:02.072Z,13.25
2023-03-06T13:29:37.638Z,11.00
2023-03-06T13:32:04.278Z,9.75
2023-03-06T13:34:38.445Z,11.00
2023-03-06T13:37:14.190Z,10.25
2023-03-06T13:40:10.189Z,12.00
2023-03-06T13:42:38.100Z,7.50
2023-03-06T13:45:24.879Z,10.50
2023-03-06T13:50:46.583Z,12.00
2023-03-06T13:53:22.614Z,12.50
2023-03-06T13:55:59.954Z,12.75
2023-03-06T13:58:26.470Z,18.33
2023-03-06T14:01:25.443Z,15.00
2023-03-06T14:03:54.643Z,8.00
2023-03-06T14:06:37.347Z,15.00
2023-03-06T14:09:05.437Z,10.00
2023-03-06T14:11:32.461Z,10.75
2023-03-06T14:13:59.142Z,13.25
2023-03-06T14:16:29.193Z,10.75
2023-03-06T14:19:00.094Z,12.00
2023-03-06T14:21:26.636Z,10.25
2023-03-06T14:24:00.966Z,14.50
2023-03-06T14:26:29.192Z,11.25
2023-03-06T14:28:57.158Z,11.75
2023-03-06T14:31:34.188Z,14.00
2023-03-06T14:34:05.242Z,11.50
2023-03-06T14:36:31.664Z,10.00
2023-03-06T14:39:02.285Z,12.75
2023-03-06T14:41:33.947Z,10.75
2023-03-06T14:44:21.663Z,11.00
2023-03-06T14:46:56.063Z,12.00
2023-03-06T14:49:23.567Z,10.00
2023-03-06T14:52:00.657Z,10.25
2023-03-06T14:54:27.078Z,12.00
2023-03-06T14:56:56.488Z,15.00
2023-03-06T14:59:26.568Z,11.50
2023-03-06T15:01:57.737Z,12.75
2023-03-06T15:04:27.121Z,20.33
2023-03-06T15:06:54.798Z,17.00
2023-03-06T15:09:32.170Z,14.33
2023-03-06T15:11:58.682Z,11.75
2023-03-06T15:14:33.002Z,9.00
2023-03-06T15:17:17.775Z,8.75
2023-03-06T15:19:48.932Z,6.75
2023-03-06T15:22:34.049Z,9.75
2023-03-06T15:25:10.217Z,8.00
2023-03-06T15:27:37.615Z,10.00
2023-03-06T15:30:22.566Z,6.00
2023-03-06T15:32:49.077Z,6.67
2023-03-06T15:35:25.735Z,9.00
2023-03-06T15:37:53.205Z,7.50
2023-03-06T15:40:20.924Z,2.00
2023-03-06T15:42:47.497Z,9.00
2023-03-06T15:45:19.857Z,9.25
2023-03-06T15:47:47.073Z,4.67
2023-03-06T15:50:18.230Z,10.67
2023-03-06T15:52:47.203Z,24.50
2023-03-06T15:55:14.466Z,31.00
2023-03-06T15:57:49.336Z,35.00
2023-03-06T16:00:27.695Z,37.25
2023-03-06T16:02:56.070Z,43.75
2023-03-06T16:05:22.686Z,35.00
2023-03-06T16:07:49.193Z,31.75
2023-03-06T16:10:19.958Z,35.00
2023-03-06T16:12:56.818Z,33.25
2023-03-06T16:15:25.769Z,41.75
2023-03-06T16:17:52.454Z,30.75
2023-03-06T16:20:20.835Z,35.25
2023-03-06T16:22:47.931Z,36.00
2023-03-06T16:25:17.415Z,29.75
2023-03-06T16:27:49.186Z,27.00
2023-03-06T16:30:19.959Z,30.00
2023-03-06T16:32:46.889Z,17.00
2023-03-06T16:35:14.144Z,6.00
2023-03-06T16:37:41.274Z,15.75
2023-03-06T16:40:27.322Z,12.33
2023-03-06T16:42:55.163Z,13.00
2023-03-06T16:45:22.568Z,12.33
2023-03-06T16:47:49.638Z,13.67
2023-03-06T16:50:25.493Z,13.33
2023-03-06T16:52:52.820Z,16.25
2023-03-06T16:55:19.739Z,12.00
2023-03-06T16:57:46.897Z,16.25
2023-03-06T17:00:13.859Z,15.00
2023-03-06T17:02:40.838Z,18.50
2023-03-06T17:05:10.574Z,14.75
2023-03-06T17:07:41.979Z,21.00
2023-03-06T17:10:10.235Z,17.50
2023-03-06T17:12:36.781Z,17.00
2023-03-06T17:15:04.112Z,19.50
2023-03-06T17:17:30.722Z,21.25
2023-03-06T17:19:59.398Z,18.00
2023-03-06T17:22:33.596Z,30.25
2023-03-06T17:25:01.205Z,39.25
2023-03-06T17:27:27.660Z,38.50
2023-03-06T17:29:56.955Z,39.50
2023-03-06T17:32:24.016Z,32.75
2023-03-06T17:34:50.498Z,28.25
2023-03-06T17:37:17.042Z,33.50
2023-03-06T17:39:43.521Z,40.25
2023-03-06T17:42:10.346Z,34.00
2023-03-06T17:44:38.294Z,27.75
2023-03-06T17:47:07.733Z,31.00
2023-03-06T17:49:34.275Z,31.00
2023-03-06T17:52:03.252Z,28.50
2023-03-06T17:54:31.112Z,28.00
2023-03-06T17:57:02.046Z,31.00
2023-03-06T17:59:28.682Z,32.25
2023-03-06T18:01:58.951Z,32.25
2023-03-06T18:04:26.201Z,31.00
2023-03-06T18:06:52.999Z,25.25
2023-03-06T18:09:19.624Z,24.00
2023-03-06T18:11:46.494Z,21.75
2023-03-06T18:14:15.189Z,23.50
2023-03-06T18:16:41.724Z,20.00
2023-03-06T18:19:10.006Z,21.00
2023-03-06T18:21:38.675Z,23.25
2023-03-06T18:24:06.016Z,19.75
2023-03-06T18:26:33.119Z,21.50
2023-03-06T18:29:03.851Z,28.00
2023-03-06T18:31:35.429Z,25.50
2023-03-06T18:34:04.040Z,25.75
2023-03-06T18:36:32.913Z,21.25
2023-03-06T18:39:01.662Z,18.00
2023-03-06T18:41:28.537Z,23.00
2023-03-06T18:43:56.284Z,20.75
2023-03-06T18:46:26.849Z,19.50
2023-03-06T18:48:56.800Z,18.75
2023-03-06T18:51:23.754Z,20.50
2023-03-06T18:53:50.285Z,23.25
2023-03-06T18:56:23.045Z,22.50
2023-03-06T18:58:50.795Z,24.00
2023-03-06T19:01:20.484Z,22.00
2023-03-06T19:03:49.441Z,22.50
2023-03-06T19:06:20.719Z,25.75
2023-03-06T19:08:47.647Z,25.75
2023-03-06T19:11:16.968Z,23.00
2023-03-06T19:13:44.246Z,25.25
2023-03-06T19:16:22.207Z,22.50
2023-03-06T19:18:49.801Z,21.50
2023-03-06T19:21:19.210Z,22.00
2023-03-06T19:23:45.722Z,26.00
2023-03-06T19:26:12.754Z,26.50
2023-03-06T19:28:40.584Z,27.00
2023-03-06T19:31:12.780Z,23.50
2023-03-06T19:33:40.358Z,23.75
2023-03-06T19:36:10.023Z,22.75
2023-03-06T19:38:37.473Z,19.00
2023-03-06T19:41:04.326Z,25.25
2023-03-06T19:43:30.966Z,24.50
2023-03-06T19:46:02.865Z,25.00
2023-03-06T19:48:31.207Z,24.25
2023-03-06T19:51:05.957Z,26.25
2023-03-06T19:53:35.894Z,25.00
2023-03-06T19:56:03.460Z,34.50
2023-03-06T19:58:31.468Z,34.50
2023-03-06T20:01:05.163Z,30.00
2023-03-06T20:03:31.829Z,31.00
2023-03-06T20:05:58.698Z,27.25
2023-03-06T20:08:26.755Z,26.75
2023-03-06T20:10:53.493Z,17.75
2023-03-06T20:13:20.408Z,24.75
2023-03-06T20:15:47.239Z,27.00
2023-03-06T20:18:14.418Z,32.50
2023-03-06T20:20:41.204Z,34.00
2023-03-06T20:23:08.094Z,34.25
2023-03-06T20:25:35.660Z,34.50
2023-03-06T20:28:02.627Z,32.50
2023-03-06T20:30:38.294Z,35.25
2023-03-06T20:33:05.397Z,36.00
2023-03-06T20:35:32.348Z,38.00
2023-03-06T20:38:01.076Z,36.75
2023-03-06T20:40:29.963Z,34.00
2023-03-06T20:42:56.498Z,33.50
2023-03-06T20:45:23.573Z,34.25
2023-03-06T20:47:54.229Z,33.00
2023-03-06T20:50:21.806Z,32.75
2023-03-06T20:52:48.688Z,33.50
2023-03-06T20:55:15.551Z,34.00
2023-03-06T20:57:42.391Z,35.00
2023-03-06T21:00:09.340Z,32.50
2023-03-06T21:02:36.042Z,33.25
2023-03-06T21:05:04.337Z,34.00
2023-03-06T21:07:31.218Z,28.25
2023-03-06T21:09:58.595Z,32.00
2023-03-06T21:12:25.232Z,35.00
2023-03-06T21:14:51.824Z,32.25
2023-03-06T21:17:19.908Z,33.00
2023-03-06T21:19:48.698Z,30.75
2023-03-06T21:22:15.367Z,29.00
2023-03-06T21:24:41.928Z,33.75
2023-03-06T21:27:08.793Z,29.00
2023-03-06T21:29:37.163Z,34.50
2023-03-06T21:32:08.057Z,33.25
2023-03-06T21:34:36.606Z,35.00
2023-03-06T21:37:04.010Z,36.50
2023-03-06T21:39:30.664Z,34.00
2023-03-06T21:41:57.193Z,33.50
2023-03-06T21:44:24.083Z,34.25
2023-03-06T21:46:52.698Z,33.00
2023-03-06T21:49:23.284Z,35.75
2023-03-06T21:51:49.837Z,32.75
2023-03-06T21:54:21.469Z,37.50
